Time;durP1;ratioP1;P1;durP2;ratioP2;P2;SDS_P1;SDS_P2;PMS_P1;PMS_P2;Temp;Humidity;BMP_temperature;BMP_pressure;BME280_temperature;BME280_humidity;BME280_pressure;Samples;Min_cycle;Max_cycle;Signal;HPM_P1;HPM_P2
2021/03/11 00:00:16;;;;;;;5.03;2.10;;;;;;;;;;5034989;28;20037;-56
2021/03/11 00:02:43;;;;;;;8.50;1.80;;;;;;;;;;5034817;28;20034;-56
2021/03/11 00:05:12;;;;;;;6.13;1.70;;;;;;;;;;5034150;28;20389;-56
2021/03/11 00:07:39;;;;;;;6.37;1.40;;;;;;;;;;5035040;28;20026;-56
2021/03/11 00:10:07;;;;;;;3.93;1.87;;;;;;;;;;5034828;28;20021;-56
2021/03/11 00:12:34;;;;;;;3.30;1.20;;;;;;;;;;5034837;28;20029;-56
2021/03/11 00:15:01;;;;;;;6.17;1.77;;;;;;;;;;5034624;28;20024;-56
2021/03/11 00:17:28;;;;;;;4.20;1.50;;;;;;;;;;5034638;28;20034;-56
2021/03/11 00:19:55;;;;;;;4.90;1.40;;;;;;;;;;5034529;28;20021;-56
2021/03/11 00:22:22;;;;;;;2.60;1.30;;;;;;;;;;5034617;28;20038;-56
2021/03/11 00:24:48;;;;;;;4.30;1.70;;;;;;;;;;5034438;28;20021;-56
2021/03/11 00:27:15;;;;;;;3.30;1.30;;;;;;;;;;5034818;28;20168;-56
2021/03/11 00:29:42;;;;;;;4.27;1.30;;;;;;;;;;5036018;28;20053;-56
2021/03/11 00:32:09;;;;;;;3.97;1.20;;;;;;;;;;5034619;28;20108;-56
2021/03/11 00:34:35;;;;;;;5.03;1.20;;;;;;;;;;5034633;28;20029;-56
2021/03/11 00:37:02;;;;;;;2.53;1.47;;;;;;;;;;5034456;28;20044;-56
2021/03/11 00:39:29;;;;;;;7.50;1.27;;;;;;;;;;5034645;28;20032;-56
2021/03/11 00:41:56;;;;;;;4.97;1.10;;;;;;;;;;5034481;28;20033;-56
2021/03/11 00:44:23;;;;;;;3.47;1.20;;;;;;;;;;5016595;28;20476;-56
2021/03/11 00:46:49;;;;;;;2.53;1.13;;;;;;;;;;5034302;28;20025;-56
2021/03/11 00:49:16;;;;;;;4.37;1.13;;;;;;;;;;5034267;28;20036;-56
2021/03/11 00:51:43;;;;;;;6.30;1.50;;;;;;;;;;5034380;28;20480;-56
2021/03/11 00:54:10;;;;;;;5.03;1.20;;;;;;;;;;5034113;28;20393;-56
2021/03/11 00:56:37;;;;;;;3.67;1.40;;;;;;;;;;5034135;28;20028;-55
2021/03/11 00:59:03;;;;;;;2.97;1.60;;;;;;;;;;5034219;28;20117;-56
2021/03/11 01:01:30;;;;;;;5.90;1.70;;;;;;;;;;5034020;28;20108;-56
2021/03/11 01:03:57;;;;;;;6.73;1.40;;;;;;;;;;5034111;28;20025;-56
2021/03/11 01:06:24;;;;;;;5.63;1.60;;;;;;;;;;5034075;28;20025;-56
2021/03/11 01:08:51;;;;;;;4.93;1.73;;;;;;;;;;5033865;28;20394;-56
2021/03/11 01:11:17;;;;;;;11.53;1.90;;;;;;;;;;5033857;28;20400;-55
2021/03/11 01:13:44;;;;;;;2.87;1.10;;;;;;;;;;5033627;28;20384;-55
2021/03/11 01:16:11;;;;;;;5.50;1.63;;;;;;;;;;5033181;28;20060;-55
2021/03/11 01:18:38;;;;;;;8.37;1.80;;;;;;;;;;5033527;28;20072;-56
2021/03/11 01:21:05;;;;;;;6.47;2.03;;;;;;;;;;5033612;28;20053;-56
2021/03/11 01:23:31;;;;;;;6.23;2.20;;;;;;;;;;5033628;28;20407;-56
2021/03/11 01:25:58;;;;;;;13.97;2.20;;;;;;;;;;5033468;28;20372;-56
2021/03/11 01:28:25;;;;;;;5.23;1.80;;;;;;;;;;5033612;28;20025;-56
2021/03/11 01:31:05;;;;;;;7.07;1.70;;;;;;;;;;5035568;28;20042;-55
2021/03/11 01:33:32;;;;;;;8.77;2.10;;;;;;;;;;5033376;28;20080;-56
2021/03/11 01:35:59;;;;;;;6.43;1.90;;;;;;;;;;5033342;28;20121;-56
2021/03/11 01:38:26;;;;;;;11.10;2.17;;;;;;;;;;5033333;28;20025;-56
2021/03/11 01:40:53;;;;;;;10.73;3.20;;;;;;;;;;5033354;28;20025;-56
2021/03/11 01:43:20;;;;;;;11.13;2.60;;;;;;;;;;5033402;28;20028;-55
2021/03/11 01:45:47;;;;;;;17.13;3.47;;;;;;;;;;5033244;28;20028;-56
2021/03/11 01:48:14;;;;;;;6.73;1.87;;;;;;;;;;5033312;28;20076;-55
2021/03/11 01:50:41;;;;;;;12.10;2.17;;;;;;;;;;5033316;28;20018;-56
2021/03/11 01:53:09;;;;;;;5.93;2.03;;;;;;;;;;5033270;28;20097;-56
2021/03/11 01:55:36;;;;;;;6.10;1.80;;;;;;;;;;5033031;28;20080;-56
2021/03/11 01:58:03;;;;;;;8.67;2.23;;;;;;;;;;5033194;28;20045;-55
2021/03/11 02:00:30;;;;;;;5.10;2.30;;;;;;;;;;5033132;28;20024;-55
2021/03/11 02:02:57;;;;;;;6.80;2.07;;;;;;;;;;5033150;28;20026;-55
2021/03/11 02:05:24;;;;;;;7.17;2.20;;;;;;;;;;5015628;28;20056;-56
2021/03/11 02:07:51;;;;;;;9.33;2.27;;;;;;;;;;5032995;28;20532;-55
2021/03/11 02:10:20;;;;;;;8.30;2.30;;;;;;;;;;5033087;28;20105;-55
2021/03/11 02:12:46;;;;;;;6.67;2.50;;;;;;;;;;5032858;28;20105;-55
2021/03/11 02:15:16;;;;;;;5.17;2.20;;;;;;;;;;5032954;28;20053;-55
2021/03/11 02:18:03;;;;;;;6.87;1.80;;;;;;;;;;5032870;28;20133;-55
2021/03/11 02:20:39;;;;;;;7.93;2.10;;;;;;;;;;5016253;28;20475;-55
2021/03/11 02:23:15;;;;;;;6.70;2.30;;;;;;;;;;5032701;28;20032;-55
2021/03/11 02:26:05;;;;;;;6.23;2.47;;;;;;;;;;5032764;28;20032;-55
2021/03/11 02:28:41;;;;;;;6.63;2.70;;;;;;;;;;5032524;28;20105;-55
2021/03/11 02:31:20;;;;;;;9.00;2.20;;;;;;;;;;5034062;28;20132;-55
2021/03/11 02:33:48;;;;;;;7.50;2.57;;;;;;;;;;5032810;28;20025;-55
2021/03/11 02:36:15;;;;;;;5.03;2.20;;;;;;;;;;5032552;28;20029;-55
2021/03/11 02:38:44;;;;;;;8.80;2.10;;;;;;;;;;5032686;28;20028;-55
2021/03/11 02:41:11;;;;;;;11.70;2.40;;;;;;;;;;5032554;28;20017;-55
2021/03/11 02:43:39;;;;;;;8.27;2.60;;;;;;;;;;5032553;28;20025;-55
2021/03/11 02:46:06;;;;;;;7.63;2.43;;;;;;;;;;5032667;28;20596;-55
2021/03/11 02:48:34;;;;;;;7.63;2.20;;;;;;;;;;5032827;28;20036;-55
2021/03/11 02:51:01;;;;;;;10.53;2.10;;;;;;;;;;5032513;28;20124;-55
2021/03/11 02:53:28;;;;;;;8.90;2.10;;;;;;;;;;5032324;28;20032;-55
2021/03/11 02:55:57;;;;;;;7.90;1.90;;;;;;;;;;5032869;28;20049;-55
2021/03/11 02:58:26;;;;;;;8.80;2.20;;;;;;;;;;5032522;28;20087;-55
2021/03/11 03:00:53;;;;;;;24.33;3.90;;;;;;;;;;5032551;28;20026;-55
2021/03/11 03:03:20;;;;;;;10.43;3.20;;;;;;;;;;5032278;28;20495;-55
2021/03/11 03:05:47;;;;;;;23.77;3.57;;;;;;;;;;5032427;28;20026;-55
2021/03/11 03:08:16;;;;;;;11.00;2.83;;;;;;;;;;5032463;28;20026;-55
2021/03/11 03:10:43;;;;;;;6.30;2.13;;;;;;;;;;5032278;28;20029;-55
2021/03/11 03:13:17;;;;;;;3.97;1.80;;;;;;;;;;5032207;28;20029;-55
2021/03/11 03:15:44;;;;;;;4.57;2.13;;;;;;;;;;5032285;28;20026;-56
2021/03/11 03:18:12;;;;;;;4.20;1.83;;;;;;;;;;5032378;28;20037;-56
2021/03/11 03:20:39;;;;;;;4.30;2.40;;;;;;;;;;5032248;28;20026;-55
2021/03/11 03:23:07;;;;;;;8.67;2.30;;;;;;;;;;5032351;28;20108;-55
2021/03/11 03:25:34;;;;;;;6.03;2.87;;;;;;;;;;5031996;28;20377;-55
2021/03/11 03:28:01;;;;;;;5.93;2.63;;;;;;;;;;5032214;28;20025;-56
2021/03/11 03:30:28;;;;;;;7.40;2.20;;;;;;;;;;5033500;28;20060;-56
2021/03/11 03:32:55;;;;;;;4.07;1.80;;;;;;;;;;5032190;28;20433;-55
2021/03/11 03:35:22;;;;;;;5.83;1.93;;;;;;;;;;5032155;28;20461;-55
2021/03/11 03:37:50;;;;;;;6.17;2.60;;;;;;;;;;5032056;28;20044;-55
2021/03/11 03:40:18;;;;;;;9.93;3.07;;;;;;;;;;5033302;28;20084;-55
2021/03/11 03:42:57;;;;;;;9.20;1.80;;;;;;;;;;5035593;28;20026;-55
2021/03/11 03:45:27;;;;;;;6.50;2.17;;;;;;;;;;5035574;28;20100;-55
2021/03/11 03:47:56;;;;;;;4.20;2.20;;;;;;;;;;5035559;28;20060;-55
2021/03/11 03:50:23;;;;;;;6.20;2.40;;;;;;;;;;5035357;28;20491;-56
2021/03/11 03:52:52;;;;;;;4.53;2.10;;;;;;;;;;5035388;28;20022;-56
2021/03/11 03:55:20;;;;;;;3.97;1.90;;;;;;;;;;5035309;28;20030;-55
2021/03/11 03:57:48;;;;;;;9.07;2.20;;;;;;;;;;5035367;28;20116;-55
2021/03/11 04:00:15;;;;;;;5.50;1.87;;;;;;;;;;5035251;28;20033;-55
2021/03/11 04:02:42;;;;;;;3.93;2.17;;;;;;;;;;5035332;28;20029;-55
2021/03/11 04:05:10;;;;;;;5.77;2.37;;;;;;;;;;5035093;28;20021;-55
2021/03/11 04:07:37;;;;;;;3.83;2.03;;;;;;;;;;5035154;28;20096;-55
2021/03/11 04:10:08;;;;;;;4.07;2.17;;;;;;;;;;5035033;28;20033;-55
2021/03/11 04:12:35;;;;;;;6.10;3.67;;;;;;;;;;5035179;28;20033;-55
2021/03/11 04:15:02;;;;;;;8.97;2.90;;;;;;;;;;5035108;28;20021;-55
2021/03/11 04:17:30;;;;;;;7.27;2.27;;;;;;;;;;5034983;28;20052;-55
2021/03/11 04:19:57;;;;;;;8.20;3.47;;;;;;;;;;5034880;28;20031;-55
2021/03/11 04:22:24;;;;;;;17.07;3.90;;;;;;;;;;5035382;28;20025;-55
2021/03/11 04:24:51;;;;;;;14.43;2.87;;;;;;;;;;5034822;28;20026;-55
2021/03/11 04:27:18;;;;;;;4.27;2.60;;;;;;;;;;5034930;28;20068;-55
2021/03/11 04:29:45;;;;;;;3.70;2.13;;;;;;;;;;5035456;28;20049;-56
2021/03/11 04:32:13;;;;;;;6.57;2.53;;;;;;;;;;5034813;28;20153;-55
2021/03/11 04:34:40;;;;;;;8.07;2.43;;;;;;;;;;5034521;28;20048;-55
2021/03/11 04:37:06;;;;;;;5.47;2.33;;;;;;;;;;5034620;28;20116;-55
2021/03/11 04:39:34;;;;;;;11.53;2.77;;;;;;;;;;5034628;28;20150;-55
2021/03/11 04:42:01;;;;;;;8.77;2.70;;;;;;;;;;5034674;28;20029;-55
2021/03/11 04:44:28;;;;;;;6.93;2.40;;;;;;;;;;5034558;28;20416;-55
2021/03/11 04:46:55;;;;;;;5.47;2.10;;;;;;;;;;5034514;28;20017;-55
2021/03/11 04:49:26;;;;;;;5.63;2.30;;;;;;;;;;5034420;28;20472;-55
2021/03/11 04:51:53;;;;;;;6.30;2.37;;;;;;;;;;5034252;28;20061;-55
2021/03/11 04:54:20;;;;;;;3.93;1.93;;;;;;;;;;5034221;28;20033;-55
2021/03/11 04:56:48;;;;;;;5.63;2.20;;;;;;;;;;5034244;28;20041;-55
2021/03/11 04:59:17;;;;;;;5.47;2.00;;;;;;;;;;5034176;28;20025;-55
2021/03/11 05:01:50;;;;;;;8.77;2.20;;;;;;;;;;5034176;28;20361;-55
2021/03/11 05:04:18;;;;;;;5.67;2.00;;;;;;;;;;5034106;28;20447;-55
2021/03/11 05:06:45;;;;;;;4.83;1.93;;;;;;;;;;5034333;28;20017;-55
2021/03/11 05:09:11;;;;;;;4.47;1.80;;;;;;;;;;5033971;28;20492;-55
2021/03/11 05:11:38;;;;;;;2.90;1.67;;;;;;;;;;5033899;28;20400;-55
2021/03/11 05:14:05;;;;;;;2.97;1.77;;;;;;;;;;5033994;28;20084;-55
2021/03/11 05:16:32;;;;;;;4.20;2.20;;;;;;;;;;5033870;28;20037;-55
2021/03/11 05:18:58;;;;;;;4.27;1.73;;;;;;;;;;5033860;28;20033;-55
2021/03/11 05:21:25;;;;;;;5.07;1.73;;;;;;;;;;5033766;28;20029;-55
2021/03/11 05:23:52;;;;;;;5.57;2.10;;;;;;;;;;5033481;28;20025;-55
2021/03/11 05:26:19;;;;;;;3.23;1.73;;;;;;;;;;5033623;28;20029;-55
2021/03/11 05:28:45;;;;;;;6.73;2.07;;;;;;;;;;5033715;28;20021;-54
2021/03/11 05:31:12;;;;;;;4.53;1.80;;;;;;;;;;5034937;28;20057;-54
2021/03/11 05:33:39;;;;;;;4.17;1.80;;;;;;;;;;5033533;28;20022;-54
2021/03/11 05:36:06;;;;;;;4.47;1.43;;;;;;;;;;5033413;28;20038;-54
2021/03/11 05:38:33;;;;;;;4.13;2.00;;;;;;;;;;5033539;28;20552;-54
2021/03/11 05:40:59;;;;;;;3.37;1.67;;;;;;;;;;5033404;28;20096;-55
2021/03/11 05:43:27;;;;;;;3.50;1.87;;;;;;;;;;5033486;28;20304;-54
2021/03/11 05:45:54;;;;;;;4.10;1.40;;;;;;;;;;5033376;28;20020;-54
2021/03/11 05:48:21;;;;;;;6.97;1.63;;;;;;;;;;5032918;28;20021;-54
2021/03/11 05:50:48;;;;;;;4.83;1.83;;;;;;;;;;5033102;28;20029;-54
2021/03/11 05:53:15;;;;;;;4.03;2.00;;;;;;;;;;5032999;28;20076;-54
2021/03/11 05:55:42;;;;;;;3.90;2.17;;;;;;;;;;5033152;28;20033;-54
2021/03/11 05:58:10;;;;;;;5.13;1.80;;;;;;;;;;5033162;28;20033;-54
2021/03/11 06:00:36;;;;;;;3.50;2.10;;;;;;;;;;5033072;28;20434;-54
2021/03/11 06:03:04;;;;;;;4.03;2.20;;;;;;;;;;5032547;28;20032;-54
2021/03/11 06:05:32;;;;;;;4.53;1.70;;;;;;;;;;5032907;28;20022;-54
2021/03/11 06:07:59;;;;;;;6.50;1.80;;;;;;;;;;5032969;28;20024;-54
2021/03/11 06:10:26;;;;;;;3.80;1.77;;;;;;;;;;5033094;28;20547;-54
2021/03/11 06:12:53;;;;;;;4.13;1.97;;;;;;;;;;5033019;28;20021;-54
2021/03/11 06:15:19;;;;;;;6.70;2.37;;;;;;;;;;5032893;28;20108;-54
2021/03/11 06:17:48;;;;;;;4.53;1.63;;;;;;;;;;5032868;28;20037;-54
2021/03/11 06:20:15;;;;;;;5.63;2.40;;;;;;;;;;5032790;28;20622;-54
2021/03/11 06:22:42;;;;;;;5.03;1.83;;;;;;;;;;5015130;28;20081;-54
2021/03/11 06:25:09;;;;;;;8.07;2.40;;;;;;;;;;5032741;28;20056;-54
2021/03/11 06:27:36;;;;;;;9.20;2.20;;;;;;;;;;5032686;28;20033;-54
2021/03/11 06:30:03;;;;;;;5.50;2.00;;;;;;;;;;5033518;28;20060;-54
2021/03/11 06:32:30;;;;;;;3.87;1.93;;;;;;;;;;5032826;28;20029;-54
2021/03/11 06:34:57;;;;;;;5.97;2.20;;;;;;;;;;5032635;28;20428;-54
2021/03/11 06:37:40;;;;;;;3.30;1.90;;;;;;;;;;5032679;28;20033;-54
2021/03/11 06:40:33;;;;;;;4.67;2.03;;;;;;;;;;5032747;28;20076;-54
2021/03/11 06:43:10;;;;;;;5.93;2.30;;;;;;;;;;5028591;28;20073;-54
2021/03/11 06:45:37;;;;;;;5.03;2.53;;;;;;;;;;5032681;28;20034;-54
2021/03/11 06:48:26;;;;;;;12.20;2.47;;;;;;;;;;5032552;28;20029;-55
2021/03/11 06:51:00;;;;;;;4.83;2.07;;;;;;;;;;5032517;28;20145;-54
2021/03/11 06:53:27;;;;;;;4.10;2.10;;;;;;;;;;5032542;28;20559;-54
2021/03/11 06:55:54;;;;;;;4.20;1.90;;;;;;;;;;5032368;28;20395;-54
2021/03/11 06:58:24;;;;;;;6.00;2.07;;;;;;;;;;5032369;28;20480;-54
2021/03/11 07:01:05;;;;;;;3.37;2.07;;;;;;;;;;5032488;28;20022;-54
2021/03/11 07:03:38;;;;;;;5.70;1.97;;;;;;;;;;5032416;28;20101;-54
2021/03/11 07:06:05;;;;;;;4.37;2.13;;;;;;;;;;5032433;28;20096;-54
2021/03/11 07:08:32;;;;;;;9.67;3.13;;;;;;;;;;5032425;28;20029;-54
2021/03/11 07:11:06;;;;;;;5.33;1.60;;;;;;;;;;5032445;28;20026;-54
2021/03/11 07:13:42;;;;;;;4.23;2.00;;;;;;;;;;5032360;28;20096;-54
2021/03/11 07:16:19;;;;;;;4.53;1.70;;;;;;;;;;5034992;28;20391;-54
2021/03/11 07:18:46;;;;;;;5.80;2.20;;;;;;;;;;5036233;28;20421;-54
2021/03/11 07:21:14;;;;;;;3.63;2.37;;;;;;;;;;5036160;28;20026;-54
2021/03/11 07:23:50;;;;;;;3.43;1.97;;;;;;;;;;5035991;28;20029;-54
2021/03/11 07:26:18;;;;;;;6.30;2.30;;;;;;;;;;5035879;28;20080;-54
2021/03/11 07:28:44;;;;;;;6.03;2.83;;;;;;;;;;5035842;28;20033;-54
2021/03/11 07:31:11;;;;;;;7.30;2.10;;;;;;;;;;5019358;28;20492;-54
2021/03/11 07:33:38;;;;;;;3.67;1.97;;;;;;;;;;5035857;28;20051;-54
2021/03/11 07:36:06;;;;;;;5.03;1.90;;;;;;;;;;5035800;28;20040;-54
2021/03/11 07:38:34;;;;;;;3.43;1.80;;;;;;;;;;5035881;28;20029;-54
2021/03/11 07:41:02;;;;;;;5.03;2.27;;;;;;;;;;5035542;28;20108;-54
2021/03/11 07:43:29;;;;;;;4.00;1.83;;;;;;;;;;5035505;28;20427;-54
2021/03/11 07:46:03;;;;;;;3.60;2.30;;;;;;;;;;5035546;28;20025;-54
2021/03/11 07:48:31;;;;;;;6.13;1.97;;;;;;;;;;5035818;28;20033;-54
2021/03/11 07:50:58;;;;;;;3.80;1.83;;;;;;;;;;5035605;28;20030;-54
2021/03/11 07:53:27;;;;;;;5.07;2.30;;;;;;;;;;5035339;28;20029;-54
2021/03/11 07:55:57;;;;;;;4.77;2.23;;;;;;;;;;5035389;28;20033;-54
2021/03/11 07:58:24;;;;;;;5.37;2.60;;;;;;;;;;5035290;28;20033;-54
2021/03/11 08:00:52;;;;;;;5.30;2.70;;;;;;;;;;5035309;28;20026;-54
2021/03/11 08:03:21;;;;;;;5.43;2.07;;;;;;;;;;5035195;28;20021;-54
2021/03/11 08:05:49;;;;;;;4.83;2.23;;;;;;;;;;5035237;28;20041;-54
2021/03/11 08:08:17;;;;;;;4.03;2.10;;;;;;;;;;5035447;28;20380;-54
2021/03/11 08:10:44;;;;;;;4.37;2.03;;;;;;;;;;5035286;28;20357;-54
2021/03/11 08:13:30;;;;;;;7.87;2.30;;;;;;;;;;5034991;28;20018;-54
2021/03/11 08:15:58;;;;;;;4.77;2.00;;;;;;;;;;5034911;28;20057;-54
2021/03/11 08:18:33;;;;;;;6.60;2.60;;;;;;;;;;5035133;28;20025;-54
2021/03/11 08:21:00;;;;;;;4.30;2.33;;;;;;;;;;5035015;28;20064;-54
2021/03/11 08:23:30;;;;;;;5.23;2.40;;;;;;;;;;5034798;28;20025;-54
2021/03/11 08:25:57;;;;;;;4.93;2.50;;;;;;;;;;5034421;28;20155;-54
2021/03/11 08:28:27;;;;;;;3.90;2.40;;;;;;;;;;5034752;28;20116;-54
2021/03/11 08:30:54;;;;;;;3.73;2.60;;;;;;;;;;5036254;28;20053;-54
2021/03/11 08:33:21;;;;;;;5.17;2.60;;;;;;;;;;5034742;28;20026;-54
2021/03/11 08:35:49;;;;;;;5.13;2.40;;;;;;;;;;5034461;28;20025;-54
2021/03/11 08:38:22;;;;;;;4.77;2.53;;;;;;;;;;5034617;28;20041;-54
2021/03/11 08:41:05;;;;;;;4.20;2.27;;;;;;;;;;5034462;28;20021;-54
2021/03/11 08:43:52;;;;;;;3.90;2.30;;;;;;;;;;5034668;28;20084;-54
2021/03/11 08:46:22;;;;;;;5.37;2.20;;;;;;;;;;5034271;28;20034;-54
2021/03/11 08:48:52;;;;;;;5.73;2.50;;;;;;;;;;5034354;28;20500;-54
2021/03/11 08:51:19;;;;;;;4.33;2.13;;;;;;;;;;5034263;28;20033;-54
2021/03/11 08:53:56;;;;;;;3.60;2.40;;;;;;;;;;5034246;28;20025;-54
2021/03/11 08:56:23;;;;;;;6.27;2.23;;;;;;;;;;5034315;28;20037;-54
2021/03/11 08:59:06;;;;;;;5.20;2.77;;;;;;;;;;5034298;28;20033;-54
2021/03/11 09:01:37;;;;;;;4.70;2.43;;;;;;;;;;5034269;28;20507;-54
2021/03/11 09:04:05;;;;;;;4.90;2.57;;;;;;;;;;5034175;28;20109;-54
2021/03/11 09:06:50;;;;;;;4.70;2.67;;;;;;;;;;5033960;28;20538;-54
2021/03/11 09:09:18;;;;;;;5.07;2.80;;;;;;;;;;5034085;28;20494;-54
2021/03/11 09:11:54;;;;;;;4.57;2.33;;;;;;;;;;5033846;28;20038;-54
2021/03/11 09:14:25;;;;;;;6.77;3.03;;;;;;;;;;5033996;28;20040;-54
2021/03/11 09:16:52;;;;;;;3.10;2.10;;;;;;;;;;5033892;28;20030;-54
2021/03/11 09:19:19;;;;;;;3.50;2.17;;;;;;;;;;5033972;28;20033;-54
2021/03/11 09:21:46;;;;;;;4.00;2.67;;;;;;;;;;5033851;28;20028;-54
2021/03/11 09:24:19;;;;;;;4.97;2.40;;;;;;;;;;5033916;28;20092;-54
2021/03/11 09:26:46;;;;;;;6.47;2.57;;;;;;;;;;5033773;28;20539;-54
2021/03/11 09:29:15;;;;;;;5.70;2.43;;;;;;;;;;5033550;28;20026;-54
2021/03/11 09:31:42;;;;;;;4.10;2.50;;;;;;;;;;5034455;28;20049;-54
2021/03/11 09:34:09;;;;;;;3.93;2.50;;;;;;;;;;5033557;28;20022;-54
2021/03/11 09:36:35;;;;;;;6.20;2.93;;;;;;;;;;5033391;28;20392;-54
2021/03/11 09:39:06;;;;;;;4.03;2.67;;;;;;;;;;5032725;28;20387;-54
2021/03/11 09:41:35;;;;;;;5.33;2.60;;;;;;;;;;5033355;28;20357;-54
2021/03/11 09:44:09;;;;;;;4.47;2.73;;;;;;;;;;5033497;28;20017;-54
2021/03/11 09:46:36;;;;;;;4.10;2.80;;;;;;;;;;5033457;28;20081;-54
2021/03/11 09:49:03;;;;;;;5.87;2.90;;;;;;;;;;5033686;28;20104;-54
2021/03/11 09:51:31;;;;;;;5.20;2.60;;;;;;;;;;5033388;28;20224;-54
2021/03/11 09:53:58;;;;;;;4.97;2.77;;;;;;;;;;5033314;28;20033;-54
2021/03/11 09:56:26;;;;;;;4.90;2.90;;;;;;;;;;5033219;28;20160;-54
2021/03/11 09:58:57;;;;;;;4.93;2.50;;;;;;;;;;5033070;28;20029;-54
2021/03/11 10:01:31;;;;;;;6.17;2.80;;;;;;;;;;5033221;28;20022;-54
2021/03/11 10:03:59;;;;;;;4.93;2.60;;;;;;;;;;5033160;28;20017;-54
2021/03/11 10:06:26;;;;;;;3.63;2.63;;;;;;;;;;5033106;28;20024;-54
2021/03/11 10:08:55;;;;;;;4.40;2.20;;;;;;;;;;5033080;28;20033;-54
2021/03/11 10:11:25;;;;;;;6.00;2.20;;;;;;;;;;5032897;28;20022;-54
2021/03/11 10:14:01;;;;;;;5.57;2.50;;;;;;;;;;5032857;28;20648;-54
2021/03/11 10:16:33;;;;;;;4.70;2.20;;;;;;;;;;5032907;28;20089;-54
2021/03/11 10:19:01;;;;;;;6.23;2.37;;;;;;;;;;5032929;28;20045;-54
2021/03/11 10:21:28;;;;;;;4.13;2.67;;;;;;;;;;5032942;28;20092;-54
2021/03/11 10:23:55;;;;;;;6.07;2.40;;;;;;;;;;5032786;28;20029;-54
2021/03/11 10:26:26;;;;;;;5.73;2.97;;;;;;;;;;5032725;28;20029;-54
2021/03/11 10:29:00;;;;;;;5.17;2.20;;;;;;;;;;5032765;28;20045;-54
2021/03/11 10:31:27;;;;;;;5.80;3.13;;;;;;;;;;5034048;28;20543;-54
2021/03/11 10:34:07;;;;;;;4.23;2.70;;;;;;;;;;5032556;28;20109;-54
2021/03/11 10:36:34;;;;;;;6.53;3.00;;;;;;;;;;5032521;28;20030;-54
2021/03/11 10:39:04;;;;;;;5.43;2.43;;;;;;;;;;5032764;28;20026;-54
2021/03/11 10:41:32;;;;;;;4.90;2.43;;;;;;;;;;5032861;28;20034;-54
2021/03/11 10:44:08;;;;;;;5.27;2.83;;;;;;;;;;5032513;28;20689;-54
2021/03/11 10:46:34;;;;;;;4.33;2.63;;;;;;;;;;5032501;28;20247;-54
2021/03/11 10:49:01;;;;;;;4.30;2.50;;;;;;;;;;5033447;28;20259;-54
2021/03/11 10:51:30;;;;;;;5.30;2.63;;;;;;;;;;5036663;28;20242;-54
2021/03/11 10:53:59;;;;;;;6.73;2.97;;;;;;;;;;5036595;28;20266;-54
2021/03/11 10:56:26;;;;;;;6.73;3.00;;;;;;;;;;5036479;28;20306;-54
2021/03/11 10:59:06;;;;;;;4.60;2.97;;;;;;;;;;5036349;28;20321;-54
2021/03/11 11:01:34;;;;;;;4.37;2.83;;;;;;;;;;5036360;28;20242;-54
2021/03/11 11:04:02;;;;;;;5.53;2.43;;;;;;;;;;5036336;28;20262;-54
2021/03/11 11:06:30;;;;;;;7.73;3.30;;;;;;;;;;5036276;28;20242;-54
2021/03/11 11:08:58;;;;;;;4.40;2.10;;;;;;;;;;5036342;28;20258;-54
2021/03/11 11:11:25;;;;;;;6.70;2.63;;;;;;;;;;5036231;28;20245;-54
2021/03/11 11:13:54;;;;;;;5.67;2.90;;;;;;;;;;5036172;28;20670;-54
2021/03/11 11:16:20;;;;;;;4.23;2.60;;;;;;;;;;5036161;28;20310;-54
2021/03/11 11:18:47;;;;;;;4.60;2.33;;;;;;;;;;5036017;28;20761;-54
2021/03/11 11:21:14;;;;;;;4.37;2.43;;;;;;;;;;5036171;28;20254;-54
2021/03/11 11:23:41;;;;;;;6.97;3.13;;;;;;;;;;5035886;28;20262;-54
2021/03/11 11:26:10;;;;;;;5.17;2.77;;;;;;;;;;5035989;28;20257;-54
2021/03/11 11:28:37;;;;;;;5.20;2.80;;;;;;;;;;5035868;28;20259;-54
2021/03/11 11:31:04;;;;;;;5.13;3.27;;;;;;;;;;5037313;28;20285;-54
2021/03/11 11:33:30;;;;;;;8.83;3.07;;;;;;;;;;5035889;28;20314;-54
2021/03/11 11:35:57;;;;;;;5.77;3.23;;;;;;;;;;5035883;28;20286;-54
2021/03/11 11:38:24;;;;;;;5.87;3.37;;;;;;;;;;5035766;28;20282;-54
2021/03/11 11:40:51;;;;;;;9.53;3.67;;;;;;;;;;5035795;28;20254;-54
2021/03/11 11:43:18;;;;;;;6.90;3.30;;;;;;;;;;5035519;28;20251;-54
2021/03/11 11:45:45;;;;;;;7.80;3.80;;;;;;;;;;5035580;28;20323;-53
2021/03/11 11:48:11;;;;;;;5.40;3.20;;;;;;;;;;5035510;28;20246;-54
2021/03/11 11:50:38;;;;;;;8.90;3.53;;;;;;;;;;5035468;28;20254;-54
2021/03/11 11:53:05;;;;;;;6.77;3.07;;;;;;;;;;5035504;28;20598;-54
2021/03/11 11:55:32;;;;;;;7.90;3.73;;;;;;;;;;5035297;28;20745;-54
2021/03/11 11:57:58;;;;;;;5.40;3.60;;;;;;;;;;5035300;28;20633;-53
2021/03/11 12:00:26;;;;;;;5.00;3.43;;;;;;;;;;5034661;28;20314;-54
2021/03/11 12:02:52;;;;;;;6.27;3.90;;;;;;;;;;5035159;28;20257;-54
2021/03/11 12:05:19;;;;;;;5.27;2.90;;;;;;;;;;5035355;28;20247;-54
2021/03/11 12:07:46;;;;;;;7.10;2.80;;;;;;;;;;5035323;28;20254;-54
2021/03/11 12:10:14;;;;;;;7.40;3.67;;;;;;;;;;5035167;28;20613;-54
2021/03/11 12:12:41;;;;;;;10.73;3.60;;;;;;;;;;5034990;28;20255;-54
2021/03/11 12:15:08;;;;;;;7.37;3.30;;;;;;;;;;5035145;28;20281;-54
2021/03/11 12:17:35;;;;;;;10.90;3.60;;;;;;;;;;5034888;28;20283;-54
2021/03/11 12:20:02;;;;;;;10.87;3.10;;;;;;;;;;5035179;28;20841;-54
2021/03/11 12:22:29;;;;;;;8.03;3.70;;;;;;;;;;5035430;28;20259;-54
2021/03/11 12:24:55;;;;;;;9.43;3.77;;;;;;;;;;5034871;28;20255;-54
2021/03/11 12:27:24;;;;;;;6.80;4.40;;;;;;;;;;5034766;28;20748;-53
2021/03/11 12:29:54;;;;;;;12.97;6.20;;;;;;;;;;5034705;28;20757;-54
2021/03/11 12:32:21;;;;;;;9.27;4.80;;;;;;;;;;5036001;28;20274;-54
2021/03/11 12:34:48;;;;;;;10.67;5.43;;;;;;;;;;5034791;28;20259;-54
2021/03/11 12:37:16;;;;;;;14.50;6.63;;;;;;;;;;5034633;28;20281;-54
2021/03/11 12:39:43;;;;;;;18.50;7.37;;;;;;;;;;5034755;28;20311;-54
2021/03/11 12:42:10;;;;;;;17.37;7.80;;;;;;;;;;5034619;28;20254;-54
2021/03/11 12:44:36;;;;;;;18.37;7.83;;;;;;;;;;5034552;28;20263;-54
2021/03/11 12:47:03;;;;;;;11.37;6.53;;;;;;;;;;5034462;28;20246;-53
2021/03/11 12:49:30;;;;;;;17.83;6.33;;;;;;;;;;5034351;28;20259;-53
2021/03/11 12:51:57;;;;;;;16.33;6.97;;;;;;;;;;5016632;28;20829;-54
2021/03/11 12:54:23;;;;;;;12.07;6.87;;;;;;;;;;5034253;28;20674;-54
2021/03/11 12:56:50;;;;;;;13.10;6.07;;;;;;;;;;5034126;28;20282;-54
2021/03/11 12:59:19;;;;;;;20.10;6.87;;;;;;;;;;5034279;28;20261;-53
2021/03/11 13:01:46;;;;;;;13.90;6.43;;;;;;;;;;5034405;28;20251;-53
2021/03/11 13:04:13;;;;;;;13.13;6.20;;;;;;;;;;5034161;28;20278;-54
2021/03/11 13:06:39;;;;;;;13.27;5.80;;;;;;;;;;5034091;28;20247;-54
2021/03/11 13:09:06;;;;;;;18.23;7.30;;;;;;;;;;5034078;28;20265;-54
2021/03/11 13:11:47;;;;;;;18.07;7.73;;;;;;;;;;5033897;28;20258;-53
2021/03/11 13:14:13;;;;;;;17.23;8.07;;;;;;;;;;5033989;28;20745;-54
2021/03/11 13:16:40;;;;;;;12.80;6.87;;;;;;;;;;5033844;28;20641;-53
2021/03/11 13:19:07;;;;;;;17.43;7.67;;;;;;;;;;5033993;28;20266;-54
2021/03/11 13:21:34;;;;;;;9.67;5.27;;;;;;;;;;5033814;28;20247;-53
2021/03/11 13:24:00;;;;;;;9.87;5.33;;;;;;;;;;5033762;28;20263;-53
2021/03/11 13:26:27;;;;;;;7.87;3.50;;;;;;;;;;5033707;28;20253;-54
2021/03/11 13:28:54;;;;;;;6.97;3.73;;;;;;;;;;5033911;28;20606;-54
2021/03/11 13:31:21;;;;;;;7.17;2.83;;;;;;;;;;5034924;28;20844;-54
2021/03/11 13:33:48;;;;;;;8.60;3.70;;;;;;;;;;5033602;28;20750;-54
2021/03/11 13:36:14;;;;;;;4.20;3.00;;;;;;;;;;5033483;28;20258;-54
2021/03/11 13:38:41;;;;;;;6.20;3.43;;;;;;;;;;5033437;28;20725;-54
2021/03/11 13:41:08;;;;;;;4.80;2.80;;;;;;;;;;5033274;28;20334;-54
2021/03/11 13:43:35;;;;;;;6.43;2.70;;;;;;;;;;5033308;28;20258;-54
2021/03/11 13:46:07;;;;;;;4.83;2.63;;;;;;;;;;5033260;28;20072;-54
2021/03/11 13:48:34;;;;;;;6.87;2.83;;;;;;;;;;5033346;28;20361;-54
2021/03/11 13:51:01;;;;;;;4.10;2.50;;;;;;;;;;5033127;28;20407;-54
2021/03/11 13:53:28;;;;;;;4.83;3.00;;;;;;;;;;5033026;28;20100;-54
2021/03/11 13:55:54;;;;;;;3.73;2.30;;;;;;;;;;5033574;28;20080;-54
2021/03/11 13:58:21;;;;;;;7.23;4.03;;;;;;;;;;5033104;28;20044;-54
2021/03/11 14:00:49;;;;;;;18.20;5.70;;;;;;;;;;5033204;28;20033;-54
2021/03/11 14:03:16;;;;;;;15.40;6.97;;;;;;;;;;5033097;28;20029;-54
2021/03/11 14:05:43;;;;;;;15.67;6.70;;;;;;;;;;5033001;28;20021;-54
2021/03/11 14:08:10;;;;;;;32.80;6.70;;;;;;;;;;5033142;28;20098;-54
2021/03/11 14:10:37;;;;;;;13.37;6.10;;;;;;;;;;5032909;28;20021;-54
2021/03/11 14:13:04;;;;;;;17.03;6.47;;;;;;;;;;5032855;28;20049;-54
2021/03/11 14:15:31;;;;;;;20.57;6.33;;;;;;;;;;5032856;28;20169;-54
2021/03/11 14:17:57;;;;;;;17.40;6.53;;;;;;;;;;5032695;28;20528;-54
2021/03/11 14:20:24;;;;;;;12.57;6.50;;;;;;;;;;5032863;28;20388;-54
2021/03/11 14:22:51;;;;;;;13.80;6.77;;;;;;;;;;5032846;28;20045;-54
2021/03/11 14:25:18;;;;;;;18.80;6.07;;;;;;;;;;5032244;28;20400;-54
2021/03/11 14:27:45;;;;;;;17.43;6.33;;;;;;;;;;5032871;28;20021;-54
2021/03/11 14:30:12;;;;;;;12.73;6.63;;;;;;;;;;5032870;28;20124;-55
2021/03/11 14:32:39;;;;;;;11.80;5.50;;;;;;;;;;5034113;28;20046;-55
2021/03/11 14:35:06;;;;;;;15.90;5.50;;;;;;;;;;5032814;28;20022;-55
2021/03/11 14:37:33;;;;;;;20.70;6.70;;;;;;;;;;5032707;28;20068;-55
2021/03/11 14:40:01;;;;;;;14.03;6.27;;;;;;;;;;5032821;28;20021;-55
2021/03/11 14:42:27;;;;;;;10.37;5.37;;;;;;;;;;5032710;28;20097;-55
2021/03/11 14:44:54;;;;;;;16.27;4.90;;;;;;;;;;5032632;28;20108;-55
2021/03/11 14:47:21;;;;;;;7.60;4.87;;;;;;;;;;5032442;28;20034;-55